الصفحة الرئيسية
METAR-TAF:

METAR-TAF

مطار :

مطار الخرطوم الدولي

الخرطوم, السودان

دائرة عرض: 15-36N, خط طول: 032-33E, ارتفاع: 382 متر

مراقبة الطقس الحالي

تاريخ ووقت الإصدار 27 دقيقة قبل الساعة 07:00UTC
ريح 12 عقدة من الجنوب الغربي
درجة الحرارة 33°درجة مئوية
الرطوبة 46%
ضغط 1011 hPa
الرؤية 10 كم أو أكثر
الغيوم لا تقل 1500 م ولا وجود لمزنة ركامية السحاب الأسود

METAR: HSSS 240700Z 22012KT CAVOK 33/20 Q1011 NOSIG

زمن: 10:27 (07:27 UTC)

توقعات

تاريخ ووقت الإصدار 2ساعات و 27 دقيقة قبل الساعة 05:00UTC
التوقعات صالحة من24 الساعة 06 UTC إلى 25 الساعة 12 UTC
ريح 12 عقدة من الجنوب تتزايد حتى 22 عقدة
الرؤية: 8000 متر
مؤقت
من 24 الساعة 12 UTC إلى 24 الساعة 16 UTC
الرؤية 10 كم أو أكثر
غيوم متفرقة على ارتفاع 4000 قدم
غيوم متفرقة على ارتفاع 14000 قدم
نظرية الاحتمالات 30% :
مؤقت
من 24 الساعة 15 UTC إلى 24 الساعة 19 UTC
الرؤية: 5000 متر
غيوم قليلة على ارتفاع 4500 قدم, مزنة ركامية.
عاصفة رعدية, مطر

TAF: HSSS 240500Z 2406/2512 19012G22KT 8000 TEMPO 2412/2416 9999 SCT040 SCT140 PROB30 TEMPO 2415/2419 5000 TSRA FEW045CB

أرصاد الطقس والتوقعات من أكثر من 4000 مطار (تقارير الطقس للمطار METAR والتنبؤ بالطقس بالمطارTAF).

المحطات المتاحة هي النقط الصفراء والحمراء على الخريطة.

حرك المؤشر فوق النقطة لمعرفة اسم المحطة.

ثم انقر لمعرفة أرصاد وتوقعات الطقس.

لتغيير الخارطة: اضغط على الأزرار الخضراء مع رمز الصليب الأسود للتكبير. على الزر الأخضر مع شرطة للتصغير، أو على الأسهم الخضراء للخرائط المجاورة.


METAR-TAF: